createdAt,value
2019-01-09T00:00:30.025Z,99875.50
2019-01-09T00:02:57.832Z,99861.12
2019-01-09T00:05:28.401Z,99859.06
2019-01-09T00:07:55.239Z,99859.90
2019-01-09T00:10:23.033Z,99846.62
2019-01-09T00:12:50.653Z,99845.62
2019-01-09T00:15:18.419Z,99849.13
2019-01-09T00:17:46.079Z,99852.84
2019-01-09T00:20:13.758Z,99845.98
2019-01-09T00:22:41.439Z,99842.16
2019-01-09T00:25:09.288Z,99849.61
2019-01-09T00:27:36.949Z,99852.29
2019-01-09T00:30:05.019Z,99858.43
2019-01-09T00:32:32.633Z,99859.17
2019-01-09T00:35:00.410Z,99863.54
2019-01-09T00:37:28.038Z,99863.25
2019-01-09T00:39:55.839Z,99880.24
2019-01-09T00:42:24.564Z,99873.20
2019-01-09T00:44:52.414Z,99874.42
2019-01-09T00:47:20.928Z,99887.68
2019-01-09T00:49:48.751Z,99888.13
2019-01-09T00:52:16.525Z,99880.34
2019-01-09T00:54:44.347Z,99883.75
2019-01-09T00:57:12.113Z,99888.48
2019-01-09T00:59:40.951Z,99886.28
2019-01-09T01:02:29.698Z,99900.82
2019-01-09T01:05:45.761Z,99891.55
2019-01-09T01:08:53.843Z,99894.61
2019-01-09T01:11:58.109Z,99900.28
2019-01-09T01:15:12.252Z,99905.01
2019-01-09T01:18:10.439Z,99910.36
2019-01-09T01:21:11.778Z,99910.00
2019-01-09T01:24:23.762Z,99915.55
2019-01-09T01:27:15.198Z,99913.06
2019-01-09T01:30:22.997Z,99912.23
2019-01-09T01:33:32.259Z,99913.53
2019-01-09T01:36:41.976Z,99909.24
2019-01-09T01:39:35.513Z,99908.70
2019-01-09T01:42:53.539Z,99903.22
2019-01-09T01:45:46.983Z,99908.70
2019-01-09T01:48:40.988Z,99906.75
2019-01-09T01:51:52.798Z,99905.16
2019-01-09T01:54:52.817Z,99915.02
2019-01-09T01:58:14.260Z,99908.05
2019-01-09T02:01:26.033Z,99913.89
2019-01-09T02:04:12.769Z,99922.23
2019-01-09T02:07:37.299Z,99936.62
2019-01-09T02:10:41.391Z,99939.77
2019-01-09T02:13:22.103Z,99936.88
2019-01-09T02:16:30.564Z,99955.17
2019-01-09T02:19:18.958Z,99952.67
2019-01-09T02:22:09.504Z,99958.05
2019-01-09T02:24:56.518Z,99960.55
2019-01-09T02:27:54.988Z,99956.03
2019-01-09T02:30:52.955Z,99967.61
2019-01-09T02:33:20.563Z,99962.42
2019-01-09T02:35:48.708Z,99972.98
2019-01-09T02:38:16.323Z,99969.45
2019-01-09T02:40:44.039Z,99977.42
2019-01-09T02:43:11.732Z,99985.69
2019-01-09T02:45:39.480Z,99984.56
2019-01-09T02:48:07.140Z,99984.31
2019-01-09T02:50:34.885Z,99979.13
2019-01-09T02:53:02.964Z,99983.63
2019-01-09T02:55:30.749Z,99995.72
2019-01-09T02:57:58.502Z,99983.52
2019-01-09T03:00:26.058Z,99988.82
2019-01-09T03:02:54.099Z,99986.05
2019-01-09T03:05:21.683Z,99999.50
2019-01-09T03:07:49.377Z,99995.03
2019-01-09T03:10:16.992Z,99994.02
2019-01-09T03:12:44.766Z,99997.02
2019-01-09T03:15:12.482Z,99998.42
2019-01-09T03:17:40.151Z,99997.85
2019-01-09T03:20:07.867Z,99997.02
2019-01-09T03:22:35.585Z,100004.23
2019-01-09T03:25:03.447Z,100003.11
2019-01-09T03:27:31.257Z,100005.17
2019-01-09T03:29:59.072Z,100003.69
2019-01-09T03:32:26.954Z,100011.77
2019-01-09T03:34:54.677Z,100005.20
2019-01-09T03:37:22.503Z,100004.56
2019-01-09T03:39:50.209Z,100012.35
2019-01-09T03:42:17.961Z,100017.19
2019-01-09T03:44:45.709Z,100000.91
2019-01-09T03:47:13.332Z,100007.69
2019-01-09T03:49:41.079Z,99999.33
2019-01-09T03:52:08.800Z,99992.50
2019-01-09T03:54:36.448Z,100004.80
2019-01-09T03:57:04.196Z,100001.27
2019-01-09T03:59:31.953Z,100003.11
2019-01-09T04:01:59.544Z,100015.02
2019-01-09T04:04:27.251Z,100009.24
2019-01-09T04:06:54.868Z,99998.31
2019-01-09T04:09:22.581Z,100003.05
2019-01-09T04:11:50.241Z,100006.94
2019-01-09T04:14:17.964Z,100009.75
2019-01-09T04:16:45.787Z,100009.29
2019-01-09T04:19:13.436Z,100005.78
2019-01-09T04:21:41.336Z,100009.86
2019-01-09T04:24:09.082Z,100008.39
2019-01-09T04:26:36.807Z,100010.08
2019-01-09T04:29:04.631Z,100012.39
2019-01-09T04:31:32.322Z,100018.34
2019-01-09T04:34:00.095Z,100018.27
2019-01-09T04:36:27.816Z,100020.11
2019-01-09T04:38:56.611Z,100024.48
2019-01-09T04:41:24.231Z,100020.48
2019-01-09T04:43:51.892Z,100021.02
2019-01-09T04:46:19.516Z,100021.02
2019-01-09T04:48:47.141Z,100030.47
2019-01-09T04:51:14.752Z,100027.69
2019-01-09T04:53:42.499Z,100039.39
2019-01-09T04:56:10.227Z,100025.50
2019-01-09T04:58:37.922Z,100026.80
2019-01-09T05:01:05.753Z,100031.92
2019-01-09T05:03:33.423Z,100034.26
2019-01-09T05:06:01.186Z,100021.70
2019-01-09T05:08:28.923Z,100043.14
2019-01-09T05:10:56.603Z,100028.92
2019-01-09T05:13:24.238Z,100029.03
2019-01-09T05:16:11.811Z,100023.47
2019-01-09T05:18:39.500Z,100028.56
2019-01-09T05:21:07.194Z,100021.02
2019-01-09T05:23:35.023Z,100026.21
2019-01-09T05:26:02.756Z,100031.30
2019-01-09T05:28:30.413Z,100035.73
2019-01-09T05:31:07.205Z,100043.59
2019-01-09T05:33:27.591Z,100037.09
2019-01-09T05:35:55.256Z,100038.18
2019-01-09T05:38:26.324Z,100044.55
2019-01-09T05:40:54.045Z,100049.39
2019-01-09T05:43:23.902Z,100046.61
2019-01-09T05:45:51.647Z,100045.85
2019-01-09T05:48:19.477Z,100041.53
2019-01-09T05:50:54.572Z,100048.25
2019-01-09T05:53:22.351Z,100050.84
2019-01-09T05:55:53.107Z,100054.16
2019-01-09T05:58:42.266Z,100059.72
2019-01-09T06:01:09.963Z,100055.53
2019-01-09T06:03:37.587Z,100071.46
2019-01-09T06:06:05.246Z,100068.20
2019-01-09T06:08:32.928Z,100071.34
2019-01-09T06:11:00.641Z,100065.67
2019-01-09T06:13:28.357Z,100070.82
2019-01-09T06:15:56.238Z,100071.12
2019-01-09T06:18:23.998Z,100074.47
2019-01-09T06:20:51.917Z,100073.42
2019-01-09T06:23:19.851Z,100079.84
2019-01-09T06:25:48.135Z,100077.41
2019-01-09T06:28:15.951Z,100082.07
2019-01-09T06:30:46.127Z,100070.45
2019-01-09T06:33:13.866Z,100074.42
2019-01-09T06:35:45.428Z,100077.02
2019-01-09T06:38:13.322Z,100084.37
2019-01-09T06:40:41.226Z,100085.03
2019-01-09T06:43:30.572Z,100090.86
2019-01-09T06:46:00.606Z,100090.23
2019-01-09T06:48:28.291Z,100086.16
2019-01-09T06:50:56.056Z,100086.38
2019-01-09T06:53:36.387Z,100095.03
2019-01-09T06:56:04.292Z,100086.51
2019-01-09T06:59:31.987Z,100100.33
2019-01-09T07:01:59.894Z,100098.09
2019-01-09T07:04:33.670Z,100103.58
2019-01-09T07:07:01.256Z,100107.95
2019-01-09T07:09:28.706Z,100114.27
2019-01-09T07:12:03.012Z,100115.08
2019-01-09T07:14:30.391Z,100122.30
2019-01-09T07:16:57.869Z,100129.56
2019-01-09T07:19:25.656Z,100130.09
2019-01-09T07:21:53.101Z,100129.44
2019-01-09T07:24:20.701Z,100121.81
2019-01-09T07:26:48.266Z,100122.52
2019-01-09T07:29:15.981Z,100139.39
2019-01-09T07:31:43.463Z,100138.09
2019-01-09T07:34:10.840Z,100133.24
2019-01-09T07:36:38.326Z,100145.99
2019-01-09T07:39:07.630Z,100135.48
2019-01-09T07:41:35.169Z,100137.05
2019-01-09T07:44:02.607Z,100152.38
2019-01-09T07:46:30.247Z,100150.88
2019-01-09T07:48:57.636Z,100148.66
2019-01-09T07:51:25.311Z,100147.89
2019-01-09T07:53:52.796Z,100156.98
2019-01-09T07:56:20.395Z,100164.16
2019-01-09T07:58:47.976Z,100161.20
2019-01-09T08:01:15.685Z,100155.23
2019-01-09T08:03:43.332Z,100166.55
2019-01-09T08:06:10.732Z,100173.94
2019-01-09T08:08:38.190Z,100170.44
2019-01-09T08:11:05.936Z,100173.94
2019-01-09T08:13:33.460Z,100161.05
2019-01-09T08:16:00.896Z,100182.19
2019-01-09T08:18:28.437Z,100186.09
2019-01-09T08:21:05.010Z,100181.58
2019-01-09T08:23:25.466Z,100181.36
2019-01-09T08:25:53.052Z,100194.33
2019-01-09T08:28:23.610Z,100191.20
2019-01-09T08:30:54.050Z,100196.16
2019-01-09T08:33:21.712Z,100202.05
2019-01-09T08:35:49.312Z,100203.33
2019-01-09T08:38:17.051Z,100206.39
2019-01-09T08:40:45.134Z,100205.92
2019-01-09T08:43:13.072Z,100202.40
2019-01-09T08:45:46.972Z,100212.11
2019-01-09T08:48:14.571Z,100213.71
2019-01-09T08:50:42.680Z,100218.66
2019-01-09T08:53:10.946Z,100218.66
2019-01-09T08:55:38.549Z,100224.32
2019-01-09T08:58:06.471Z,100233.20
2019-01-09T09:00:34.051Z,100226.69
2019-01-09T09:03:01.952Z,100224.00
2019-01-09T09:05:29.851Z,100232.86
2019-01-09T09:08:02.166Z,100231.17
2019-01-09T09:10:30.112Z,100241.46
2019-01-09T09:12:57.726Z,100245.05
2019-01-09T09:15:25.387Z,100246.81
2019-01-09T09:17:54.291Z,100237.66
2019-01-09T09:20:21.811Z,100247.91
2019-01-09T09:22:52.254Z,100253.55
2019-01-09T09:25:19.751Z,100241.41
2019-01-09T09:27:48.371Z,100273.03
2019-01-09T09:30:16.156Z,100269.12
2019-01-09T09:32:43.811Z,100255.61
2019-01-09T09:35:11.344Z,100261.94
2019-01-09T09:37:39.052Z,100276.66
2019-01-09T09:40:07.929Z,100264.37
2019-01-09T09:42:35.656Z,100274.36
2019-01-09T09:45:03.810Z,100279.47
2019-01-09T09:47:31.411Z,100277.84
2019-01-09T09:50:00.786Z,100285.11
2019-01-09T09:52:28.535Z,100288.14
2019-01-09T09:54:58.712Z,100293.95
2019-01-09T09:57:34.630Z,100292.78
2019-01-09T10:00:21.752Z,100298.65
2019-01-09T10:03:22.736Z,100290.19
2019-01-09T10:09:00.444Z,100299.44
2019-01-09T10:11:54.742Z,100307.91
2019-01-09T10:26:20.903Z,100318.00
2019-01-09T10:29:35.330Z,100315.52
2019-01-09T10:32:32.512Z,100309.23
2019-01-09T10:35:43.103Z,100311.34
2019-01-09T10:47:11.210Z,100314.28
2019-01-09T10:50:28.310Z,100316.34
2019-01-09T10:53:08.883Z,100316.58
2019-01-09T11:00:39.490Z,100314.38
2019-01-09T11:07:54.677Z,100320.44
2019-01-09T11:14:39.795Z,100311.51
2019-01-09T11:17:43.375Z,100319.88
2019-01-09T11:20:19.258Z,100323.77
2019-01-09T11:22:52.532Z,100314.14
2019-01-09T11:25:29.153Z,100316.88
2019-01-09T11:27:59.875Z,100313.38
2019-01-09T11:30:28.363Z,100322.34
2019-01-09T11:33:04.889Z,100320.77
2019-01-09T11:35:37.270Z,100306.78
2019-01-09T11:38:07.252Z,100312.58
2019-01-09T11:40:44.471Z,100308.51
2019-01-09T11:43:12.171Z,100309.81
2019-01-09T11:45:40.049Z,100319.73
2019-01-09T11:48:07.651Z,100312.11
2019-01-09T11:50:53.991Z,100314.64
2019-01-09T11:53:27.732Z,100294.91
2019-01-09T11:55:55.598Z,100307.24
2019-01-09T11:58:23.332Z,100292.35
2019-01-09T12:00:56.291Z,100296.41
2019-01-09T12:03:30.870Z,100301.91
2019-01-09T12:06:20.261Z,100307.67
2019-01-09T12:09:21.926Z,100310.81
2019-01-09T12:11:50.251Z,100311.61
2019-01-09T12:14:34.526Z,100307.55
2019-01-09T12:17:08.571Z,100319.41
2019-01-09T12:19:39.611Z,100307.74
2019-01-09T12:22:34.270Z,100319.57
2019-01-09T12:25:27.491Z,100310.64
2019-01-09T12:28:14.666Z,100320.20
2019-01-09T12:31:07.094Z,100324.50
2019-01-09T12:33:39.331Z,100317.23
2019-01-09T12:36:07.191Z,100326.40
2019-01-09T12:38:35.010Z,100328.53
2019-01-09T12:41:08.832Z,100330.37
2019-01-09T12:43:36.651Z,100315.34
2019-01-09T12:46:04.655Z,100328.48
2019-01-09T16:19:36.894Z,100546.56
2019-01-09T16:34:03.951Z,100561.88
2019-01-09T16:37:05.200Z,100570.58
2019-01-09T16:41:15.989Z,100569.28
2019-01-09T16:43:51.640Z,100565.02
2019-01-09T18:04:48.595Z,100648.09
2019-01-09T19:14:10.179Z,100741.44
2019-01-09T19:17:22.651Z,100745.37
2019-01-09T19:31:51.239Z,100754.84
2019-01-09T19:44:41.607Z,100771.14
2019-01-09T19:47:58.054Z,100788.27
2019-01-09T19:55:30.179Z,100789.23
2019-01-09T19:58:43.134Z,100792.56
2019-01-09T20:34:34.323Z,100825.05
2019-01-09T20:53:44.750Z,100832.95
2019-01-09T20:56:58.349Z,100843.38
2019-01-09T20:59:11.802Z,100833.13
2019-01-09T21:05:24.543Z,100845.97
2019-01-09T21:08:04.664Z,100847.10
2019-01-09T21:10:43.395Z,100859.28
2019-01-09T21:17:22.950Z,100873.72
2019-01-09T21:19:57.859Z,100875.14
2019-01-09T21:39:19.514Z,100902.98
2019-01-09T21:41:34.386Z,100895.02
2019-01-09T21:44:02.656Z,100895.86
2019-01-09T21:46:30.751Z,100897.87
2019-01-09T21:48:58.785Z,100901.43
2019-01-09T21:51:27.400Z,100910.52
2019-01-09T21:53:55.441Z,100911.80
2019-01-09T21:56:23.491Z,100918.28
2019-01-09T21:58:51.685Z,100914.90
2019-01-09T22:01:29.555Z,100920.26
2019-01-09T22:03:57.330Z,100926.04
2019-01-09T22:06:25.240Z,100922.61
2019-01-09T22:08:53.165Z,100920.42
2019-01-09T22:11:21.126Z,100926.14
2019-01-09T22:13:49.030Z,100932.22
2019-01-09T22:16:16.946Z,100930.38
2019-01-09T22:18:44.936Z,100932.52
2019-01-09T22:21:12.800Z,100938.32
2019-01-09T22:23:40.750Z,100942.19
2019-01-09T22:26:08.365Z,100937.70
2019-01-09T22:28:36.265Z,100943.73
2019-01-09T22:31:04.185Z,100936.02
2019-01-09T22:33:31.913Z,100937.41
2019-01-09T22:36:05.380Z,100941.30
2019-01-09T22:38:32.901Z,100948.31
2019-01-09T22:41:00.360Z,100953.43
2019-01-09T22:43:27.970Z,100950.16
2019-01-09T22:45:55.445Z,100956.44
2019-01-09T22:48:22.995Z,100960.73
2019-01-09T22:50:50.386Z,100951.12
2019-01-09T22:53:17.855Z,100960.38
2019-01-09T22:55:45.300Z,100959.12
2019-01-09T22:58:14.070Z,100957.10
2019-01-09T23:00:58.567Z,100961.61
2019-01-09T23:03:26.076Z,100966.23
2019-01-09T23:05:54.513Z,100962.56
2019-01-09T23:08:21.973Z,100969.97
2019-01-09T23:10:54.402Z,100971.22
2019-01-09T23:13:18.950Z,100972.59
2019-01-09T23:15:46.433Z,100976.95
2019-01-09T23:18:13.871Z,100977.41
2019-01-09T23:20:41.290Z,100980.11
2019-01-09T23:23:08.950Z,100983.55
2019-01-09T23:25:36.605Z,100979.95
2019-01-09T23:28:04.155Z,100987.09
2019-01-09T23:30:31.671Z,100983.63
2019-01-09T23:32:59.150Z,100990.19
2019-01-09T23:35:26.680Z,100985.30
2019-01-09T23:37:56.020Z,100982.75
2019-01-09T23:40:23.505Z,100987.16
2019-01-09T23:42:52.124Z,100993.80
2019-01-09T23:45:19.591Z,100990.67
2019-01-09T23:47:46.988Z,100985.64
2019-01-09T23:50:14.592Z,100992.73
2019-01-09T23:52:41.975Z,100991.86
2019-01-09T23:55:09.672Z,100987.20
2019-01-09T23:57:37.065Z,100994.56
